Terminal Aerodrome Forecast
Issued by NWS Upton, NY

Home | Current Version | Previous Version | Text Only | Print | Product List | Glossary On
Versions: 1 2 3 4 5 6 7 8 9 10 11 12 13 14 15 16 17 18 19 20 21 22 23 24 25 26 27 28 29 30 31 32 33
000
FTUS41 KOKX 270848 CCA
TAFJFK
TAF COR
KJFK 270848Z 2708/2812 07007KT 2SM -DZ BR OVC005
     FM271000 08006KT 1SM -RADZ BR OVC004
     FM271400 14008KT 2SM -RA BR OVC006 WS020/22035KT
     FM271600 17008KT 4SM -RA BR OVC015
     FM271800 20009KT P6SM BKN030
     FM272100 20008KT P6SM BKN040
     FM280300 19003KT 5SM BR OVC025
     FM280600 17003KT 1/2SM FG OVC004=

USA.gov is the U.S. government's official web portal to all federal, state and local government web resources and services.